メインページ
METAR-TAF:

METAR-TAF

空港 :

シーラーズ国際空港

シーラーズ, イラン

緯度: 29-32N, 経度: 052-35E, 海抜: 1486m

現時点の気象観測

当レポートは44分前の17:30(UTC)に作成
無風
気温 10°C
湿度 93%
気圧 1023 hPa
視程: 4000m
高度2000ftの雲はほとんどない
高度3000ftの雲はほとんどない, 積乱雲.
高度3500ftの雲は散在している
高度8000ftの曇り

METAR: OISS 171730Z 00000KT 4000 RA FEW020 FEW030CB SCT035 OVC080 10/09 Q1023 A3022

時間: 21:44 (18:14 UTC)

予報

当レポートは6時間44分前の11:30(UTC)に作成
予報は17日の 12時(UTC)から 18日の 18時(UTC)まで有効
西/南西の風 8kt
視程: 6000m
高度3500ftの雲はほとんどない, 積乱雲.
高度4000ftの雲は散在している
高度10000ftの曇り
17日の 12時(UTC)から 17日の 21時(UTC)まで一時的に
西/南西の風 18kt
視程: 4000m
高度3000ftの雲は散在している, 積乱雲.
高度4000ftの雲は散在している
高度8000ftの曇り
18日の 08時(UTC)から 18日の 18時(UTC)まで一時的に
西/南西の風 18kt
視程: 3000m
高度2500ftの雲は散在している, 積乱雲.
高度3500ftの雲は散在している
高度8000ftの曇り
激しい雷雨, 雨

TAF: OISS 171130Z 1712/1818 24008KT 6000 FEW035CB SCT040 OVC100 TEMPO 1712/1721 24018KT 4000 RA SCT030CB SCT040 OVC080 TEMPO 1808/1818 24018KT 3000 TSRA SCT025CB SCT035 OVC080

4,000以上の空港の気象観測と天気予報(METAR報とTAF報)

利用可能な観測所は地図上に黄色い丸と赤い丸で示す。

丸の上にカーソルを重ねると観測所名を参照できる。

次にクリックすると気象観測と天気予報を参照できる。

マップの切り替え:黒色「×」印の緑ボタンをクリックして拡大、「-」印の緑ボタンをクリックして縮小、緑色の三角印をクリックして隣りの地図に切り替え


METAR-TAF: